Flight ASX205X

  • Submitted By: Lukasz Przybylak
  • Departure Airport: Gdansk im. Lecha Walesy (EPGD)
  • Arrival Airport: Katowice Pyrzowice (EPKT)
  • Aircraft: KING AIR 350 (SP-DBL)
  • Flight Time: 01.45.26
  • Date Submitted: 09/09/2017
  • Status: Accepted
Flight Details
Gross Revenue:
(8 load / € 80.00 per unit
€ 640.00
Fuel Cost:
(368.771 fuel used @ 0.45 / unit)
€ 165.95

Additional Log Information:

View Log

[07:51] - CARENADO B350i King Air 5003
[07:51] - Flight ASX205X is ready to depart EPGD with a final destination of EPKT.
[07:51] - Boarding
[07:55] - Beacon Light ON 3AGL
[07:55] - Navigation Lights ON 3AGL
[07:55] - Engine 1 Started
[07:55] - Engine 2 Started
[08:02] - Taxi Lights ON 3AGL
[08:02] - Wing Lights ON 3AGL
[08:02] - Recognition Lights ON 3AGL
[08:04] - Pushing Back from the gate
[08:04] - Parking Brake Released
[08:07] - Taxiing to Runway
[08:08] - Landing Lights ON 3AGL
[08:08] - Taxi Lights OFF 3AGL
[08:08] - Strobe Lights ON 3AGL
[08:09] - Taking Off with 8 passengers on board
[08:09] - Take off at 133kts, with a pitch of 7deg and 2868lbs of fuel on board
[08:09] - Wind Heading 201 | Wind Speed 7kts | Temperature 13 deg C
[08:09] - METAR Departure: EPGD 090530Z 20006KT CAVOK 14/11 Q1002

[08:10] - Gear up at 341AGL
[08:10] - AutoPilot Engaged at 502AGL
[08:10] - Climbing to TOC
[08:12] - Landing Lights OFF 4967AGL
[08:24] - TOC reached
[08:24] - Cruise started
[09:06] - TOD reached
[09:06] - Descending to destination
[09:22] - Landing Shortly
[09:24] - Gear down at 2464AGL
[09:24] - Flaps to position 1 at 3301ft and 202kts
[09:27] - Flaps to position 2 at 1896ft and 172kts
[09:27] - AutoPilot Disengaged at 423AGL
[09:28] - Landed at -78fpm. With 2108lbs of fuel onboard and a pitch angle of 0deg.
[09:28] - Wind Heading 138 | Wind Speed 7kts | Temperature 12 deg C
[09:28] - METAR Arrival: EPKT 090700Z 12006KT 100V160 CAVOK 16/10 Q1006

[09:29] - Taxiing to Gate
[09:29] - Parking Brake Applied
[09:29] - Arrived safely at EPKT. We hope you enjoyed your flight!
[09:29] - Strobe Lights OFF 6AGL
[09:30] - Taxi Lights ON 6AGL
[09:31] - Parking Brake Released
[09:31] - Taxiing to Gate
[09:31] - Flaps to position 1
[09:31] - Flaps to position 0
[09:35] - Parking Brake Applied
[09:36] - Arrived safely at EPKT. We hope you enjoyed your flight!
[09:36] - Recognition Lights OFF 6AGL
[09:36] - Wing Lights OFF 6AGL
[09:36] - Taxi Lights OFF 6AGL
[09:36] - Engine 1 Stopped
[09:36] - Engine 2 Stopped
[09:36] - Navigation Lights OFF 6AGL
[09:36] - Beacon Lights OFF 6AGL
[09:37] - CARENADO B350i King Air 5003
[09:37] - MaxSim Rate: 1x
[09:37] - SiouxAcars ver: 1.0.1.2

Route Map